Time;durP1;ratioP1;P1;durP2;ratioP2;P2;SDS_P1;SDS_P2;PMS_P1;PMS_P2;Temp;Humidity;BMP_temperature;BMP_pressure;BME280_temperature;BME280_humidity;BME280_pressure;Samples;Min_cycle;Max_cycle;Signal;HPM_P1;HPM_P2
2023/05/02 04:02:33;;;;;;;2.93;2.67;;;12.60;83.80;;;;;;5147916;22;20912;-74
2023/05/02 04:04:59;;;;;;;2.40;2.00;;;12.70;83.60;;;;;;5035747;28;20502;-74
2023/05/02 04:07:27;;;;;;;2.40;2.10;;;12.70;83.30;;;;;;5035655;28;20439;-75
2023/05/02 04:09:54;;;;;;;3.53;2.70;;;12.50;84.00;;;;;;5035603;28;20474;-74
2023/05/02 04:12:21;;;;;;;3.90;2.90;;;12.60;83.80;;;;;;5035397;28;20517;-74
2023/05/02 04:14:47;;;;;;;2.50;2.27;;;12.70;83.50;;;;;;5037238;28;20562;-74
2023/05/02 04:17:14;;;;;;;3.63;2.90;;;12.60;83.20;;;;;;5035516;28;20545;-74
2023/05/02 04:19:42;;;;;;;3.30;3.00;;;12.50;83.30;;;;;;5035592;28;20530;-74
2023/05/02 04:22:09;;;;;;;2.83;2.57;;;12.60;83.00;;;;;;5035370;28;20514;-74
2023/05/02 04:24:36;;;;;;;3.30;3.00;;;12.70;82.80;;;;;;5035374;28;20546;-74
2023/05/02 04:27:02;;;;;;;3.53;2.70;;;12.70;82.70;;;;;;5036183;28;20455;-75
2023/05/02 04:29:29;;;;;;;3.43;3.13;;;12.80;82.40;;;;;;5035383;28;20448;-74
2023/05/02 04:31:56;;;;;;;2.80;2.50;;;12.80;82.30;;;;;;5035317;28;20545;-74
2023/05/02 04:34:22;;;;;;;3.23;2.40;;;12.90;82.30;;;;;;5035241;28;20447;-75
2023/05/02 04:36:50;;;;;;;2.87;2.57;;;12.90;82.30;;;;;;5034967;28;20484;-74
2023/05/02 04:39:17;;;;;;;3.10;2.70;;;13.00;82.30;;;;;;5035325;28;20456;-74
2023/05/02 04:41:45;;;;;;;2.67;2.37;;;13.00;82.20;;;;;;5035083;28;20495;-74
2023/05/02 04:44:11;;;;;;;2.70;2.50;;;13.00;82.30;;;;;;5035071;28;20448;-74
2023/05/02 04:46:38;;;;;;;3.33;3.03;;;13.00;82.30;;;;;;5035021;28;20507;-75
2023/05/02 04:49:05;;;;;;;3.17;2.87;;;13.00;82.10;;;;;;5034801;28;20444;-74
2023/05/02 04:51:31;;;;;;;2.60;2.40;;;13.10;82.10;;;;;;5034900;28;20494;-74
2023/05/02 04:53:59;;;;;;;2.90;2.40;;;13.10;82.10;;;;;;5034871;28;20443;-75
2023/05/02 04:56:26;;;;;;;2.97;2.40;;;13.20;82.10;;;;;;5034638;28;20479;-74
2023/05/02 04:58:53;;;;;;;3.20;2.80;;;13.20;81.90;;;;;;5034733;28;20490;-74
2023/05/02 05:01:19;;;;;;;2.60;2.40;;;13.20;81.70;;;;;;5034324;28;20480;-74
2023/05/02 05:03:46;;;;;;;2.90;2.20;;;13.30;81.70;;;;;;5034712;28;20498;-74
2023/05/02 05:06:13;;;;;;;2.90;2.60;;;13.30;81.20;;;;;;5034648;28;20872;-74
2023/05/02 05:08:39;;;;;;;3.40;2.83;;;13.30;81.30;;;;;;5034641;28;20483;-74
2023/05/02 05:11:07;;;;;;;3.13;2.83;;;13.20;81.40;;;;;;5034248;28;20467;-74
2023/05/02 05:13:34;;;;;;;3.30;3.00;;;13.20;81.70;;;;;;5034150;28;20455;-75
2023/05/02 05:16:01;;;;;;;2.33;2.13;;;13.20;82.00;;;;;;5034159;28;20458;-75
2023/05/02 05:18:28;;;;;;;2.50;2.30;;;13.30;82.00;;;;;;5033792;28;20996;-74
2023/05/02 05:20:54;;;;;;;2.30;2.10;;;13.20;81.40;;;;;;5034036;28;20518;-75
2023/05/02 05:23:21;;;;;;;3.20;2.83;;;13.10;82.00;;;;;;5033702;28;20501;-74
2023/05/02 05:25:48;;;;;;;2.57;2.37;;;13.20;82.00;;;;;;5033690;28;20482;-74
2023/05/02 05:28:17;;;;;;;2.70;2.13;;;13.20;82.10;;;;;;5033664;28;21017;-74
2023/05/02 05:30:43;;;;;;;2.60;2.33;;;13.30;81.90;;;;;;5033608;28;20980;-75
2023/05/02 05:33:10;;;;;;;3.13;2.60;;;13.40;81.90;;;;;;5033549;28;20999;-74
2023/05/02 05:35:37;;;;;;;2.50;2.13;;;13.40;82.00;;;;;;5033838;28;20443;-75
2023/05/02 05:38:03;;;;;;;2.63;2.43;;;13.50;81.60;;;;;;5033431;28;21069;-75
2023/05/02 05:40:30;;;;;;;2.80;2.43;;;13.50;81.30;;;;;;5033340;28;20945;-75
2023/05/02 05:42:57;;;;;;;2.60;2.40;;;13.50;81.10;;;;;;5033686;28;20455;-75
2023/05/02 05:45:25;;;;;;;3.70;3.27;;;13.50;81.30;;;;;;5033231;28;20443;-74
2023/05/02 05:47:54;;;;;;;3.70;3.30;;;13.50;81.20;;;;;;5033571;28;20443;-75
2023/05/02 05:50:20;;;;;;;3.33;3.03;;;13.50;81.30;;;;;;5033570;28;20518;-74
2023/05/02 05:52:47;;;;;;;4.13;3.50;;;13.60;81.60;;;;;;5033565;28;20451;-75
2023/05/02 05:55:14;;;;;;;3.60;3.30;;;13.50;81.30;;;;;;5033499;28;20513;-75
2023/05/02 05:57:41;;;;;;;4.90;3.90;;;13.50;81.00;;;;;;5033344;28;20483;-75
2023/05/02 06:00:09;;;;;;;3.67;3.20;;;13.60;80.80;;;;;;5033062;28;20923;-74
2023/05/02 06:02:37;;;;;;;3.70;3.40;;;13.50;80.70;;;;;;5032957;28;20483;-75
2023/05/02 06:05:04;;;;;;;3.80;3.50;;;13.50;80.90;;;;;;5033300;28;20502;-74
2023/05/02 06:07:31;;;;;;;3.73;3.43;;;13.50;80.80;;;;;;5033340;28;20450;-75
2023/05/02 06:09:58;;;;;;;3.80;3.50;;;13.50;81.00;;;;;;5033280;28;20803;-74
2023/05/02 06:12:24;;;;;;;4.13;3.77;;;13.60;80.60;;;;;;5032858;28;21054;-74
2023/05/02 06:14:51;;;;;;;3.87;3.57;;;13.70;80.70;;;;;;5033324;28;20505;-74
2023/05/02 06:17:18;;;;;;;5.00;4.60;;;13.70;80.20;;;;;;5032821;28;20928;-75
2023/05/02 06:19:46;;;;;;;3.67;3.37;;;13.80;80.20;;;;;;5033123;28;20474;-75
2023/05/02 06:22:13;;;;;;;4.40;4.00;;;13.80;79.90;;;;;;5033120;28;20468;-75
2023/05/02 06:24:39;;;;;;;3.77;3.47;;;13.70;79.40;;;;;;5033157;28;20564;-75
2023/05/02 06:27:06;;;;;;;4.53;4.13;;;13.60;80.00;;;;;;5033293;28;20439;-75
2023/05/02 06:29:32;;;;;;;4.20;3.90;;;13.50;80.40;;;;;;5033208;28;20443;-74
2023/05/02 06:31:59;;;;;;;4.40;4.00;;;13.50;80.30;;;;;;5032997;28;20475;-74
2023/05/02 06:34:26;;;;;;;4.50;4.10;;;13.40;80.80;;;;;;5033788;28;20447;-75
2023/05/02 06:36:56;;;;;;;4.47;4.07;;;13.30;80.90;;;;;;5033811;28;20476;-75
2023/05/02 06:39:22;;;;;;;4.50;4.13;;;13.40;81.20;;;;;;5033049;28;20530;-75
2023/05/02 06:41:49;;;;;;;5.00;4.60;;;13.30;80.70;;;;;;5032600;28;20467;-74
2023/05/02 06:44:16;;;;;;;4.80;4.40;;;13.40;81.20;;;;;;5032610;28;20451;-74
2023/05/02 06:46:43;;;;;;;4.50;4.10;;;13.50;81.70;;;;;;5032974;28;20448;-74
2023/05/02 06:49:09;;;;;;;5.37;4.93;;;13.60;81.20;;;;;;5032557;28;20872;-75
2023/05/02 06:51:36;;;;;;;5.30;4.80;;;13.70;80.90;;;;;;5032843;28;20471;-74
2023/05/02 06:54:04;;;;;;;4.97;4.57;;;13.70;80.40;;;;;;5032825;28;20451;-75
2023/05/02 06:56:31;;;;;;;5.80;5.30;;;13.80;80.80;;;;;;5032893;28;20502;-73
2023/05/02 06:58:58;;;;;;;5.60;5.13;;;13.90;81.00;;;;;;5036648;28;20486;-74
2023/05/02 07:01:24;;;;;;;4.80;4.40;;;13.90;80.30;;;;;;5036196;28;20499;-74
2023/05/02 07:03:51;;;;;;;5.90;5.40;;;14.00;80.20;;;;;;5036668;28;20497;-74
2023/05/02 07:06:18;;;;;;;5.67;5.17;;;14.00;79.60;;;;;;5036625;28;20533;-74
2023/05/02 07:08:45;;;;;;;6.00;5.50;;;14.10;79.80;;;;;;5036524;28;20447;-74
2023/05/02 07:11:13;;;;;;;6.20;5.70;;;14.20;80.00;;;;;;5036471;28;20878;-74
2023/05/02 07:13:40;;;;;;;6.77;6.20;;;14.10;78.90;;;;;;5036445;28;20447;-74
2023/05/02 07:16:07;;;;;;;6.47;5.90;;;14.20;79.10;;;;;;5036428;28;20463;-74
2023/05/02 07:18:34;;;;;;;6.50;6.00;;;14.20;79.10;;;;;;5036215;28;20479;-74
2023/05/02 07:21:01;;;;;;;6.73;6.13;;;14.20;79.10;;;;;;5035958;28;20988;-74
2023/05/02 07:23:28;;;;;;;7.50;7.00;;;14.20;78.80;;;;;;5035918;28;20944;-75
2023/05/02 07:25:54;;;;;;;6.50;6.00;;;14.00;79.50;;;;;;5036311;28;20553;-74
2023/05/02 07:28:22;;;;;;;7.43;6.80;;;13.90;80.10;;;;;;5037317;28;20497;-75
2023/05/02 07:30:49;;;;;;;6.67;6.17;;;14.00;80.10;;;;;;5036294;28;20479;-74
2023/05/02 07:33:16;;;;;;;6.23;5.73;;;14.00;79.50;;;;;;5036192;28;20514;-74
2023/05/02 07:35:43;;;;;;;7.23;6.63;;;14.20;79.70;;;;;;5036243;28;20457;-74
2023/05/02 07:38:09;;;;;;;7.77;7.17;;;14.10;79.20;;;;;;5035661;28;20483;-74
2023/05/02 07:40:36;;;;;;;8.40;7.70;;;14.20;79.60;;;;;;5035613;28;20979;-74
2023/05/02 07:43:03;;;;;;;8.30;7.60;;;14.20;79.50;;;;;;5035972;28;20448;-74
2023/05/02 07:45:31;;;;;;;5.90;5.40;;;14.40;79.20;;;;;;5036030;28;20482;-74
2023/05/02 07:47:57;;;;;;;6.87;6.37;;;14.30;78.90;;;;;;5035836;28;20440;-75
2023/05/02 07:50:24;;;;;;;8.20;7.40;;;14.50;79.10;;;;;;5035887;28;20505;-76
2023/05/02 07:52:51;;;;;;;7.40;6.80;;;14.50;79.20;;;;;;5035499;28;20975;-75
2023/05/02 07:55:18;;;;;;;8.10;7.50;;;14.70;79.30;;;;;;5035787;28;20455;-75
2023/05/02 07:57:45;;;;;;;8.50;7.80;;;14.70;77.90;;;;;;5035657;28;20863;-75
2023/05/02 08:00:12;;;;;;;8.33;7.73;;;14.70;78.50;;;;;;5035254;28;20945;-74
2023/05/02 08:02:41;;;;;;;8.63;7.93;;;14.80;78.70;;;;;;5035061;28;20476;-74
2023/05/02 08:05:08;;;;;;;7.60;7.10;;;14.90;78.50;;;;;;5036077;28;20536;-74
2023/05/02 08:07:35;;;;;;;8.63;7.93;;;15.00;79.00;;;;;;5035143;28;20514;-74
2023/05/02 08:10:01;;;;;;;7.40;6.80;;;15.00;78.70;;;;;;5035384;28;20451;-75
2023/05/02 08:12:28;;;;;;;8.43;7.80;;;15.10;78.30;;;;;;5035342;28;20525;-73
2023/05/02 08:14:55;;;;;;;8.97;8.27;;;15.20;77.70;;;;;;5035216;28;20455;-75
2023/05/02 08:17:21;;;;;;;9.00;8.30;;;15.30;77.40;;;;;;5035266;28;20537;-75
2023/05/02 08:19:49;;;;;;;8.37;7.63;;;15.10;77.10;;;;;;5035307;28;20447;-74
2023/05/02 08:22:16;;;;;;;8.67;7.97;;;15.20;77.80;;;;;;5034826;28;20471;-74
2023/05/02 08:24:43;;;;;;;10.07;9.07;;;15.20;77.10;;;;;;5034842;28;20868;-74
2023/05/02 08:27:09;;;;;;;9.20;8.40;;;15.20;76.80;;;;;;5034788;28;20498;-74
2023/05/02 08:29:36;;;;;;;9.33;8.63;;;15.20;76.60;;;;;;5035089;28;20474;-75
2023/05/02 08:32:03;;;;;;;10.30;9.60;;;15.30;76.80;;;;;;5035026;28;20476;-75
2023/05/02 08:34:30;;;;;;;10.37;9.63;;;15.30;76.90;;;;;;5034662;28;20866;-73
2023/05/02 08:36:57;;;;;;;10.20;9.40;;;15.30;77.10;;;;;;5034660;28;20861;-75
2023/05/02 08:39:24;;;;;;;9.87;9.07;;;15.20;77.80;;;;;;5034503;28;21066;-75
2023/05/02 08:41:51;;;;;;;10.40;9.60;;;15.20;77.70;;;;;;5034745;28;20479;-75
2023/05/02 08:44:17;;;;;;;10.53;9.73;;;15.30;77.80;;;;;;5035255;28;20975;-75
2023/05/02 08:46:45;;;;;;;9.83;9.03;;;15.40;78.20;;;;;;5034712;28;20451;-76
2023/05/02 08:49:13;;;;;;;9.37;8.67;;;15.40;76.90;;;;;;5034763;28;20459;-75
2023/05/02 08:51:40;;;;;;;10.63;9.70;;;15.60;76.10;;;;;;5034554;28;20467;-75
2023/05/02 08:54:09;;;;;;;9.03;8.33;;;15.80;75.60;;;;;;5034610;28;20448;-75
2023/05/02 08:56:37;;;;;;;9.33;8.67;;;15.90;74.80;;;;;;5034281;28;20963;-75
2023/05/02 08:59:04;;;;;;;9.60;8.90;;;16.00;74.40;;;;;;5034313;28;20479;-76
2023/05/02 09:01:32;;;;;;;8.93;8.23;;;16.20;74.30;;;;;;5034099;28;20533;-74
2023/05/02 09:03:58;;;;;;;9.77;8.97;;;16.40;74.00;;;;;;5034335;28;20509;-75
2023/05/02 09:06:26;;;;;;;9.33;8.53;;;16.60;74.50;;;;;;5034441;28;20502;-75
2023/05/02 09:08:53;;;;;;;8.47;7.87;;;16.70;72.10;;;;;;5034313;28;20861;-76
2023/05/02 09:11:21;;;;;;;8.33;7.63;;;16.80;72.50;;;;;;5034150;28;20471;-75
2023/05/02 09:13:49;;;;;;;8.73;8.03;;;17.00;71.70;;;;;;5034180;28;20554;-75
2023/05/02 09:16:18;;;;;;;6.93;6.40;;;17.00;71.50;;;;;;5034199;28;20454;-75
2023/05/02 09:18:46;;;;;;;8.73;8.07;;;17.10;70.60;;;;;;5033922;28;20607;-75
2023/05/02 09:21:15;;;;;;;7.50;6.90;;;17.10;72.20;;;;;;5033125;28;20820;-76
2023/05/02 09:23:43;;;;;;;7.50;6.90;;;17.30;70.90;;;;;;5033956;28;20451;-76
2023/05/02 09:26:21;;;;;;;8.10;7.50;;;17.40;69.40;;;;;;5034087;28;20447;-76
2023/05/02 09:28:49;;;;;;;7.87;6.23;;;17.40;69.70;;;;;;5033966;28;20518;-76
2023/05/02 09:31:17;;;;;;;6.60;6.00;;;17.50;70.10;;;;;;5033896;28;20906;-76
2023/05/02 09:33:44;;;;;;;6.73;6.03;;;17.50;69.30;;;;;;5033859;28;20451;-75
2023/05/02 09:36:14;;;;;;;7.70;7.10;;;17.60;70.10;;;;;;5033792;28;20502;-75
2023/05/02 09:38:41;;;;;;;7.20;6.60;;;17.70;69.20;;;;;;5033747;28;20511;-76
2023/05/02 09:41:07;;;;;;;7.23;6.63;;;17.70;71.10;;;;;;5033509;28;20517;-75
2023/05/02 09:43:35;;;;;;;7.23;6.63;;;17.80;70.80;;;;;;5033642;28;20452;-75
2023/05/02 09:46:04;;;;;;;8.03;7.43;;;17.80;70.70;;;;;;5033657;28;20513;-76
2023/05/02 09:48:32;;;;;;;6.63;6.00;;;17.70;69.90;;;;;;5033292;28;20435;-76
2023/05/02 09:51:00;;;;;;;7.27;6.50;;;17.80;68.60;;;;;;5033573;28;20475;-76
2023/05/02 09:53:27;;;;;;;6.60;6.10;;;17.90;68.20;;;;;;5033612;28;20456;-75
2023/05/02 09:56:01;;;;;;;6.80;6.03;;;17.80;71.20;;;;;;5033469;28;20453;-74
2023/05/02 09:58:29;;;;;;;6.47;5.87;;;18.00;69.00;;;;;;5033402;28;20533;-75
2023/05/02 10:00:58;;;;;;;7.20;6.60;;;18.10;67.50;;;;;;5033151;28;20498;-75
2023/05/02 10:03:26;;;;;;;7.40;6.80;;;18.20;69.30;;;;;;5033405;28;20431;-75
2023/05/02 10:05:53;;;;;;;6.60;6.10;;;18.10;70.70;;;;;;5033341;28;20458;-74
2023/05/02 10:08:21;;;;;;;6.57;5.93;;;18.40;67.70;;;;;;5033389;28;20482;-77
2023/05/02 10:10:52;;;;;;;6.00;5.53;;;18.80;67.10;;;;;;5033159;28;21031;-77
2023/05/02 10:13:21;;;;;;;6.87;6.37;;;18.90;65.40;;;;;;5058112;22;20428;-76
2023/05/02 10:15:53;;;;;;;6.00;5.60;;;19.20;64.50;;;;;;5032134;28;20543;-75
2023/05/02 10:18:27;;;;;;;6.77;6.20;;;19.20;63.40;;;;;;5033206;28;20472;-76
2023/05/02 10:20:58;;;;;;;6.10;5.60;;;19.40;62.20;;;;;;5032831;28;20471;-75
2023/05/02 10:23:29;;;;;;;5.43;4.97;;;19.30;63.40;;;;;;5032508;28;20432;-76
2023/05/02 10:25:58;;;;;;;6.80;6.30;;;19.50;64.10;;;;;;5032533;28;20439;-75
2023/05/02 10:28:26;;;;;;;6.70;6.20;;;19.50;63.80;;;;;;5033092;28;20522;-76
2023/05/02 10:30:53;;;;;;;8.47;7.33;;;19.40;64.30;;;;;;5033384;28;20596;-76
2023/05/02 10:33:22;;;;;;;7.33;6.73;;;19.00;64.70;;;;;;5036676;28;20444;-77
2023/05/02 10:35:49;;;;;;;8.17;7.40;;;18.80;65.30;;;;;;5036274;28;20501;-77
2023/05/02 10:38:19;;;;;;;6.87;6.27;;;18.80;65.70;;;;;;5036494;28;20853;-76
2023/05/02 10:40:56;;;;;;;7.73;7.13;;;18.90;64.80;;;;;;5036491;28;20466;-77
2023/05/02 10:43:25;;;;;;;6.07;5.57;;;19.00;65.00;;;;;;5036218;28;20451;-77
2023/05/02 10:45:53;;;;;;;7.20;6.50;;;19.00;65.50;;;;;;5036500;28;20447;-76
2023/05/02 10:48:23;;;;;;;6.30;5.80;;;19.20;64.50;;;;;;5036032;28;20872;-77
2023/05/02 10:50:51;;;;;;;6.47;5.97;;;19.30;64.40;;;;;;5036857;28;20542;-77
2023/05/02 10:53:27;;;;;;;5.57;5.07;;;19.20;64.90;;;;;;5037047;28;20862;-78
2023/05/02 10:56:20;;;;;;;5.10;4.70;;;19.20;65.50;;;;;;5036216;28;20447;-76
2023/05/02 10:58:47;;;;;;;6.17;5.67;;;19.40;63.80;;;;;;5035953;28;20975;-77
2023/05/02 11:01:36;;;;;;;5.40;5.00;;;19.50;59.40;;;;;;5036121;28;20478;-76
2023/05/02 11:04:06;;;;;;;5.47;4.97;;;19.40;61.80;;;;;;5036037;28;20506;-76
2023/05/02 11:06:34;;;;;;;5.60;5.10;;;19.30;60.90;;;;;;5036033;28;20447;-77
2023/05/02 11:09:35;;;;;;;5.70;5.20;;;19.60;64.10;;;;;;5035999;28;20447;-76
2023/05/02 11:12:03;;;;;;;6.07;5.57;;;19.80;60.50;;;;;;5036051;28;20443;-77
2023/05/02 11:14:49;;;;;;;5.10;4.70;;;19.40;60.10;;;;;;5037533;28;20501;-79
2023/05/02 11:17:17;;;;;;;5.70;5.20;;;19.40;61.50;;;;;;5037324;28;20439;-78
2023/05/02 11:20:24;;;;;;;4.87;4.47;;;19.50;60.30;;;;;;5037143;28;20537;-77
2023/05/02 11:22:53;;;;;;;5.27;4.77;;;19.60;60.40;;;;;;5037878;28;20435;-76
2023/05/02 11:25:35;;;;;;;4.83;4.30;;;19.80;61.80;;;;;;5037558;28;20503;-78
2023/05/02 11:28:02;;;;;;;4.80;4.40;;;19.40;59.20;;;;;;5037993;28;20458;-77
2023/05/02 11:30:42;;;;;;;4.60;4.20;;;19.20;61.20;;;;;;5037979;28;20454;-76
2023/05/02 11:33:17;;;;;;;5.20;4.80;;;19.30;59.60;;;;;;5035696;28;20552;-76
2023/05/02 11:35:45;;;;;;;5.70;5.20;;;19.20;59.00;;;;;;5035749;28;20522;-76
2023/05/02 11:38:15;;;;;;;5.47;5.07;;;19.20;59.10;;;;;;5037636;28;20455;-77
2023/05/02 11:40:54;;;;;;;5.60;4.27;;;19.20;58.10;;;;;;5037094;28;20444;-77
2023/05/02 11:43:21;;;;;;;5.60;5.10;;;19.20;60.00;;;;;;5036118;28;20436;-77
2023/05/02 11:45:48;;;;;;;5.40;4.90;;;19.40;60.50;;;;;;5036251;28;20535;-77
2023/05/02 11:48:17;;;;;;;4.70;4.30;;;19.50;60.90;;;;;;5036632;28;20459;-77
2023/05/02 11:50:45;;;;;;;5.40;5.00;;;19.80;62.50;;;;;;5035983;28;20971;-76
2023/05/02 11:53:14;;;;;;;5.40;5.00;;;20.10;59.20;;;;;;5035692;28;20849;-77
2023/05/02 11:55:48;;;;;;;5.33;4.93;;;20.10;57.50;;;;;;5035247;28;20447;-76
2023/05/02 11:58:17;;;;;;;5.57;5.03;;;19.70;59.70;;;;;;5035076;28;20443;-76
2023/05/02 12:00:46;;;;;;;5.73;5.20;;;19.70;60.10;;;;;;5035258;28;20502;-76
2023/05/02 12:03:23;;;;;;;5.63;5.20;;;20.10;59.70;;;;;;5035018;28;20450;-77
2023/05/02 12:05:51;;;;;;;5.47;5.07;;;20.10;58.50;;;;;;5034681;28;21002;-76
2023/05/02 12:08:26;;;;;;;5.33;4.90;;;20.10;58.30;;;;;;5034912;28;20447;-78
2023/05/02 12:10:55;;;;;;;5.30;4.90;;;19.90;57.50;;;;;;5034975;28;20489;-77
2023/05/02 12:13:23;;;;;;;4.70;4.30;;;19.70;57.50;;;;;;5034355;28;20452;-77
2023/05/02 12:15:52;;;;;;;5.90;5.40;;;19.70;57.10;;;;;;5034499;28;20959;-77
2023/05/02 12:18:22;;;;;;;5.80;5.33;;;19.70;57.60;;;;;;5034723;28;20447;-77
2023/05/02 12:20:49;;;;;;;5.50;5.10;;;19.80;56.40;;;;;;5036099;28;20450;-77
2023/05/02 12:23:16;;;;;;;6.20;5.70;;;19.80;57.30;;;;;;5034709;28;20453;-76
2023/05/02 12:25:44;;;;;;;6.40;5.90;;;19.90;58.20;;;;;;5034679;28;20448;-77
2023/05/02 12:28:11;;;;;;;6.37;5.87;;;19.90;58.50;;;;;;5034523;28;20443;-77
2023/05/02 12:30:39;;;;;;;5.77;5.30;;;20.00;58.60;;;;;;5035269;28;20469;-77
2023/05/02 12:33:07;;;;;;;5.63;5.13;;;20.00;59.60;;;;;;5034216;28;20451;-77
2023/05/02 12:35:35;;;;;;;4.90;4.50;;;20.10;57.00;;;;;;5034426;28;20517;-77
2023/05/02 12:38:14;;;;;;;4.57;4.27;;;19.90;55.20;;;;;;5034085;28;20940;-77
2023/05/02 12:40:52;;;;;;;5.20;4.80;;;19.90;56.10;;;;;;5034233;28;20473;-77
2023/05/02 12:43:20;;;;;;;6.77;6.27;;;20.00;55.50;;;;;;5034254;28;20446;-76
2023/05/02 12:45:48;;;;;;;7.00;6.50;;;19.90;57.10;;;;;;5034508;28;20870;-77
2023/05/02 12:48:20;;;;;;;6.97;6.40;;;20.00;58.50;;;;;;5034728;28;20485;-77
2023/05/02 12:50:47;;;;;;;7.20;6.60;;;20.30;59.30;;;;;;5034147;28;20885;-77
2023/05/02 12:53:14;;;;;;;7.80;7.20;;;20.70;59.20;;;;;;5034397;28;20605;-76
2023/05/02 12:55:41;;;;;;;7.17;6.60;;;21.00;58.40;;;;;;5033312;28;20535;-77
2023/05/02 12:58:10;;;;;;;6.03;5.60;;;21.20;57.20;;;;;;5034191;28;20530;-77
2023/05/02 13:00:39;;;;;;;7.20;6.60;;;21.50;57.50;;;;;;5034066;28;20489;-76
2023/05/02 13:03:07;;;;;;;7.00;6.43;;;21.60;55.80;;;;;;5034059;28;20458;-76
2023/05/02 13:05:34;;;;;;;7.50;7.00;;;21.40;57.20;;;;;;5033950;28;20464;-76
2023/05/02 13:08:00;;;;;;;8.00;7.40;;;21.50;55.20;;;;;;5033691;28;20941;-76
2023/05/02 13:10:28;;;;;;;7.57;6.97;;;21.30;55.60;;;;;;5033810;28;20484;-76
2023/05/02 13:12:55;;;;;;;8.00;7.40;;;21.00;55.90;;;;;;5033587;28;20467;-76
2023/05/02 13:15:23;;;;;;;7.87;7.17;;;20.90;57.20;;;;;;5033335;28;20613;-77
2023/05/02 13:17:51;;;;;;;7.80;7.20;;;20.80;56.90;;;;;;5033638;28;20489;-76
2023/05/02 13:20:18;;;;;;;7.50;6.90;;;20.80;56.50;;;;;;5033298;28;20522;-76
2023/05/02 13:22:44;;;;;;;6.40;5.90;;;20.90;57.40;;;;;;5033645;28;20450;-77
2023/05/02 13:25:11;;;;;;;7.07;6.47;;;21.00;56.30;;;;;;5033412;28;20479;-78
2023/05/02 13:27:39;;;;;;;5.33;4.93;;;20.70;56.20;;;;;;5033598;28;20444;-77
2023/05/02 13:30:07;;;;;;;5.43;5.00;;;20.70;55.00;;;;;;5033576;28;20546;-77
2023/05/02 13:32:36;;;;;;;5.40;5.00;;;20.80;56.10;;;;;;5033162;28;20451;-78
2023/05/02 13:35:03;;;;;;;6.40;5.90;;;20.70;54.40;;;;;;5033110;28;20578;-76
2023/05/02 13:37:30;;;;;;;7.40;6.80;;;20.60;55.30;;;;;;5033259;28;20487;-77
2023/05/02 13:39:56;;;;;;;7.77;7.10;;;20.20;56.10;;;;;;5032891;28;20479;-76
2023/05/02 13:42:23;;;;;;;7.47;6.87;;;19.90;57.50;;;;;;5033166;28;20447;-76
2023/05/02 13:44:50;;;;;;;6.87;6.23;;;19.80;57.60;;;;;;5032687;28;20854;-77
2023/05/02 13:47:16;;;;;;;7.50;6.90;;;19.60;57.60;;;;;;5032993;28;20456;-77
2023/05/02 13:49:44;;;;;;;6.50;6.00;;;19.50;58.10;;;;;;5033124;28;20478;-77
2023/05/02 13:52:11;;;;;;;7.40;6.70;;;19.30;60.40;;;;;;5032991;28;20550;-77
2023/05/02 13:54:38;;;;;;;8.17;7.50;;;19.20;58.30;;;;;;5032902;28;20471;-77
2023/05/02 13:57:05;;;;;;;6.23;5.73;;;19.30;58.60;;;;;;5032938;28;20509;-78
2023/05/02 13:59:32;;;;;;;6.30;5.80;;;19.40;59.40;;;;;;5032634;28;20483;-77
2023/05/02 14:01:58;;;;;;;6.70;6.10;;;19.70;58.60;;;;;;5033793;28;20452;-77
2023/05/02 14:04:25;;;;;;;6.43;5.93;;;20.10;58.60;;;;;;5034963;28;20995;-79
2023/05/02 14:06:53;;;;;;;4.97;4.57;;;20.40;57.60;;;;;;5036370;28;20447;-76
2023/05/02 14:09:20;;;;;;;6.67;6.17;;;20.60;55.80;;;;;;5036555;28;20454;-78
2023/05/02 14:11:47;;;;;;;6.30;5.80;;;20.80;56.30;;;;;;5035416;28;20471;-77
2023/05/02 14:14:14;;;;;;;5.63;5.13;;;20.90;54.90;;;;;;5037496;28;20547;-77
2023/05/02 14:16:42;;;;;;;5.70;5.20;;;21.10;54.60;;;;;;5034590;28;20473;-76
2023/05/02 14:19:08;;;;;;;5.40;5.00;;;21.40;54.10;;;;;;5037007;28;20456;-76
2023/05/02 14:21:36;;;;;;;5.50;5.10;;;21.60;52.70;;;;;;5037947;28;20447;-77
2023/05/02 14:24:05;;;;;;;5.43;5.00;;;21.40;52.80;;;;;;5038268;28;20498;-77
2023/05/02 14:26:32;;;;;;;5.33;4.93;;;21.30;52.80;;;;;;5038198;28;20459;-77
2023/05/02 14:28:59;;;;;;;5.20;4.80;;;21.20;52.70;;;;;;5036841;28;20451;-76
2023/05/02 14:31:26;;;;;;;4.83;4.43;;;21.20;53.40;;;;;;5035900;28;20848;-77
2023/05/02 14:33:53;;;;;;;4.97;4.57;;;21.50;53.60;;;;;;5036310;28;20478;-76
2023/05/02 14:36:19;;;;;;;3.90;3.60;;;21.80;52.70;;;;;;5035999;28;20455;-77
2023/05/02 14:38:46;;;;;;;3.93;3.63;;;22.00;49.70;;;;;;5033877;28;20509;-77
2023/05/02 14:41:14;;;;;;;5.60;4.80;;;22.10;50.70;;;;;;5033571;28;20518;-77
2023/05/02 14:43:41;;;;;;;4.50;4.10;;;22.30;51.00;;;;;;5032609;28;20479;-78
2023/05/02 14:46:07;;;;;;;4.67;4.27;;;22.30;51.70;;;;;;5032613;28;20512;-77
2023/05/02 14:48:34;;;;;;;4.90;4.50;;;22.40;52.10;;;;;;5032531;28;20845;-77
2023/05/02 14:51:03;;;;;;;4.80;4.40;;;22.50;51.00;;;;;;5032764;28;20473;-77
2023/05/02 14:53:30;;;;;;;4.37;3.97;;;22.50;51.90;;;;;;5032817;28;20451;-78
2023/05/02 14:55:56;;;;;;;4.80;4.30;;;22.40;52.10;;;;;;5032989;28;20497;-77
2023/05/02 14:58:24;;;;;;;3.87;3.57;;;22.40;52.10;;;;;;5032944;28;20501;-78
2023/05/02 15:00:51;;;;;;;4.30;3.90;;;22.40;51.50;;;;;;5032975;28;20487;-78
2023/05/02 15:03:18;;;;;;;3.70;3.40;;;22.50;50.50;;;;;;5032674;28;20452;-78
2023/05/02 15:05:45;;;;;;;4.17;3.77;;;22.60;50.80;;;;;;5032981;28;20452;-78
2023/05/02 15:08:11;;;;;;;4.10;3.70;;;22.80;52.30;;;;;;5032743;28;20491;-77
2023/05/02 15:10:38;;;;;;;3.83;3.53;;;23.20;52.10;;;;;;5032318;28;20945;-78
2023/05/02 15:13:06;;;;;;;3.90;3.40;;;23.60;50.60;;;;;;5033029;28;20447;-78
2023/05/02 15:15:34;;;;;;;3.90;3.60;;;23.80;48.60;;;;;;5032867;28;20486;-78
2023/05/02 15:18:01;;;;;;;4.50;4.10;;;24.10;47.90;;;;;;5033737;28;20502;-77
2023/05/02 15:20:27;;;;;;;5.90;4.87;;;24.70;47.00;;;;;;5036027;28;20479;-77
2023/05/02 15:22:54;;;;;;;4.03;3.73;;;25.40;46.10;;;;;;5036736;28;20550;-78
2023/05/02 15:25:21;;;;;;;4.37;3.97;;;26.30;45.90;;;;;;5036218;28;20471;-78
2023/05/02 15:27:47;;;;;;;4.60;4.20;;;26.90;45.00;;;;;;5036463;28;20447;-78
2023/05/02 15:30:14;;;;;;;4.23;3.93;;;27.10;43.60;;;;;;5036539;28;20443;-77
2023/05/02 15:32:42;;;;;;;4.20;3.80;;;26.80;43.90;;;;;;5035845;28;20496;-78
2023/05/02 15:35:10;;;;;;;3.97;3.67;;;26.60;43.90;;;;;;5035806;28;20459;-78
2023/05/02 15:37:37;;;;;;;3.83;3.53;;;26.40;43.70;;;;;;5035355;28;20928;-77
2023/05/02 15:40:05;;;;;;;3.43;3.13;;;25.50;44.90;;;;;;5035453;28;20491;-77
2023/05/02 15:42:34;;;;;;;3.80;2.97;;;24.70;45.90;;;;;;5035684;28;20458;-77
2023/05/02 15:45:00;;;;;;;3.60;3.30;;;24.20;46.90;;;;;;5035099;28;20941;-77
2023/05/02 15:47:27;;;;;;;3.73;3.43;;;23.50;48.20;;;;;;5035476;28;20443;-77
2023/05/02 15:49:57;;;;;;;3.43;3.13;;;23.10;49.00;;;;;;5035457;28;20493;-77
2023/05/02 15:52:24;;;;;;;3.87;3.33;;;22.60;49.60;;;;;;5035033;28;20863;-77
2023/05/02 15:54:51;;;;;;;3.90;3.40;;;22.30;50.70;;;;;;5035292;28;20525;-77
2023/05/02 15:57:18;;;;;;;2.70;2.50;;;22.10;51.00;;;;;;5035313;28;20447;-77
2023/05/02 15:59:45;;;;;;;3.10;2.67;;;21.60;51.30;;;;;;5034919;28;20454;-77
2023/05/02 16:02:11;;;;;;;3.10;2.70;;;21.20;51.50;;;;;;5035154;28;20439;-78
2023/05/02 16:04:38;;;;;;;3.30;3.00;;;21.10;51.80;;;;;;5035136;28;20474;-77
2023/05/02 16:07:06;;;;;;;2.77;2.47;;;20.90;52.10;;;;;;5035285;28;20447;-78
2023/05/02 16:09:32;;;;;;;2.83;2.47;;;20.80;52.60;;;;;;5035151;28;20506;-77
2023/05/02 16:12:00;;;;;;;3.10;2.40;;;20.70;52.50;;;;;;5035720;28;20579;-77
2023/05/02 16:14:27;;;;;;;2.40;2.10;;;20.70;53.00;;;;;;5058479;23;21004;-74
2023/05/02 16:16:54;;;;;;;2.60;1.97;;;20.70;53.00;;;;;;5035111;28;20941;-73
2023/05/02 16:19:21;;;;;;;2.63;1.90;;;20.50;52.60;;;;;;5035430;28;20435;-74
2023/05/02 16:21:48;;;;;;;2.53;1.70;;;20.30;52.80;;;;;;5035370;28;20490;-74
2023/05/02 16:24:16;;;;;;;2.93;1.70;;;20.30;52.90;;;;;;5035040;28;21046;-74
2023/05/02 16:26:42;;;;;;;2.77;1.97;;;20.10;52.70;;;;;;5035107;28;20497;-74
2023/05/02 16:29:09;;;;;;;1.93;1.53;;;20.00;52.80;;;;;;5034839;28;20949;-74
2023/05/02 16:31:35;;;;;;;2.10;1.40;;;20.10;52.70;;;;;;5034801;28;20822;-75
2023/05/02 16:34:02;;;;;;;2.70;2.20;;;20.00;53.80;;;;;;5035006;28;20866;-75
2023/05/02 16:36:30;;;;;;;2.50;1.93;;;20.10;53.50;;;;;;5035326;28;20889;-74
2023/05/02 16:38:57;;;;;;;2.60;2.17;;;19.80;54.10;;;;;;5035162;28;20600;-75
2023/05/02 16:41:25;;;;;;;2.50;2.10;;;19.70;54.30;;;;;;5035049;28;20484;-74
2023/05/02 16:43:51;;;;;;;2.40;2.03;;;19.70;54.50;;;;;;5034989;28;20546;-75
2023/05/02 16:46:18;;;;;;;2.70;1.53;;;19.60;54.30;;;;;;5035292;28;20444;-74
2023/05/02 16:48:45;;;;;;;2.10;1.70;;;19.60;54.40;;;;;;5035073;28;20505;-74
2023/05/02 16:51:11;;;;;;;3.03;2.00;;;19.70;54.40;;;;;;5035070;28;20501;-74